Urbanna, Virginia
Current Conditions -  °F | °C
As of 4:15 AM on Saturday 01 Nov 2014 (Local Time) from KW75 Reporting Station
Overcast Overcast  
Wind Chill: 47°   Ceiling: 2900
Heat Index: 49°   Visibility: 10mi
Dew Point: 43°   Wind: 6mph
Humidity: 81%   Direction: 310°NW
Pressure: 29.7"   Gusts: NA
Location:  37.64°N, 76.57°W
Report Text: KW75 010815Z AUTO 31005KT 10SM OVC029 10/06 A2970 RMK AO1 T00950063
Loading
Personal Weather Stations






























Interactive Weather Map New forecast layout! Learn more

10-Day Weather Forecast

Advertisements
Track Severe Weather on mobile